Terminal Aerodrome Forecast
Issued by NWS

Home | Current Version | Previous Version | Text Only | Print | Product List | Glossary On
Versions: 1 2 3 4 5 6 7 8 9 10 11 12 13 14 15 16 17 18
000
FTUS43 KILX 191734
TAFCMI
TAF
KCMI 191734Z 1918/2018 VRB03KT P6SM SCT045
     FM192300 VRB03KT P6SM SKC
     FM200900 10005KT 3SM BR SKC
     FM201400 16006KT P6SM SCT050=

USA.gov is the U.S. government's official web portal to all federal, state and local government web resources and services.